Time;durP1;ratioP1;P1;durP2;ratioP2;P2;SDS_P1;SDS_P2;PMS_P1;PMS_P2;Temp;Humidity;BMP_temperature;BMP_pressure;BME280_temperature;BME280_humidity;BME280_pressure;Samples;Min_cycle;Max_cycle;Signal;HPM_P1;HPM_P2
2022/01/14 00:00:20;;;;;;;39.80;16.50;;;;;;;-3.44;71.96;96182.31;5055331;28;20649;-84
2022/01/14 00:02:46;;;;;;;37.13;15.40;;;;;;;-3.52;71.98;96158.81;5054067;28;20161;-84
2022/01/14 00:05:11;;;;;;;31.03;15.30;;;;;;;-3.48;71.79;96162.88;5052792;28;20171;-84
2022/01/14 00:07:37;;;;;;;32.80;14.83;;;;;;;-3.60;71.72;96137.03;5053991;28;20226;-84
2022/01/14 00:10:03;;;;;;;28.97;14.43;;;;;;;-3.31;71.66;96173.88;5054056;28;20164;-84
2022/01/14 00:12:36;;;;;;;29.23;13.40;;;;;;;-3.42;71.58;96149.63;5052668;28;20175;-84
2022/01/14 00:15:23;;;;;;;36.23;15.93;;;;;;;-3.48;71.80;96157.72;5053974;28;20158;-84
2022/01/14 00:17:47;;;;;;;32.73;15.07;;;;;;;-3.45;71.22;96154.94;5057604;28;20175;-84
2022/01/14 00:20:12;;;;;;;36.30;16.77;;;;;;;-3.46;71.45;96149.91;5062094;28;20183;-84
2022/01/14 00:22:38;;;;;;;37.73;16.23;;;;;;;-3.26;71.16;96182.13;5064180;28;20162;-84
2022/01/14 00:33:10;;;;;;;37.47;16.63;;;;;;;-3.35;71.20;96201.53;5054381;28;20630;-84
2022/01/14 00:35:42;;;;;;;33.03;16.53;;;;;;;-3.45;71.73;96177.25;5053558;28;20242;-84
2022/01/14 00:38:09;;;;;;;35.40;16.53;;;;;;;-3.31;71.93;96205.59;5053901;28;20152;-84
2022/01/14 00:40:35;;;;;;;30.77;15.77;;;;;;;-3.37;71.57;96192.28;5053556;28;20159;-84
2022/01/14 00:43:01;;;;;;;30.80;14.00;;;;;;;-3.32;71.13;96192.81;5053323;28;20254;-84
2022/01/14 00:45:28;;;;;;;26.37;12.93;;;;;;;-3.23;70.80;96205.13;5055869;28;20179;-84
2022/01/14 00:47:53;;;;;;;29.73;13.17;;;;;;;-3.52;71.16;96155.41;5060868;28;20218;-85
2022/01/14 00:50:20;;;;;;;23.90;12.33;;;;;;;-3.62;70.59;96152.56;5060912;28;20199;-84
2022/01/14 00:52:46;;;;;;;27.93;12.73;;;;;;;-3.55;70.93;96177.03;5056607;28;20250;-84
2022/01/14 00:55:15;;;;;;;28.90;12.03;;;;;;;-3.23;70.93;96216.25;5053185;28;20247;-85
2022/01/14 01:00:21;;;;;;;29.43;13.77;;;;;;;-3.48;69.94;96175.72;5053976;28;20163;-84
2022/01/14 01:02:46;;;;;;;30.83;14.23;;;;;;;-3.64;70.66;96149.28;5051737;28;20217;-84
2022/01/14 01:05:13;;;;;;;30.87;13.50;;;;;;;-3.34;70.50;96190.31;5051578;28;20178;-84
2022/01/14 01:07:44;;;;;;;31.37;13.67;;;;;;;-3.49;70.18;96160.38;5056764;28;20223;-84
2022/01/14 01:10:11;;;;;;;29.80;11.97;;;;;;;-3.47;70.37;96166.25;5059164;28;20175;-84
2022/01/14 01:15:06;;;;;;;32.60;13.80;;;;;;;-3.40;70.36;96149.53;5066291;28;20186;-84
2022/01/14 01:17:33;;;;;;;29.50;14.63;;;;;;;-3.42;70.40;96161.66;5032831;28;20171;-84
2022/01/14 01:20:00;;;;;;;33.50;15.40;;;;;;;-3.39;70.52;96152.94;5033065;28;20183;-84
2022/01/14 01:22:26;;;;;;;42.30;15.50;;;;;;;-3.39;70.66;96145.22;5032809;28;20156;-84
2022/01/14 01:24:52;;;;;;;36.63;15.47;;;;;;;-3.35;70.38;96144.06;5032711;28;20646;-84
2022/01/14 01:27:20;;;;;;;30.90;15.20;;;;;;;-3.55;70.44;96117.84;5047996;28;20243;-83
2022/01/14 01:30:10;;;;;;;35.30;15.60;;;;;;;-3.51;70.47;96105.59;5058993;28;20168;-84
2022/01/14 01:32:30;;;;;;;33.97;14.00;;;;;;;-3.30;70.06;96136.91;5058595;28;20218;-84
2022/01/14 01:34:56;;;;;;;30.63;14.77;;;;;;;-3.43;69.39;96108.53;5058137;28;21010;-84
2022/01/14 01:37:21;;;;;;;32.43;12.27;;;;;;;-3.34;69.59;96138.84;5052467;28;20190;-84
2022/01/14 01:39:47;;;;;;;27.23;11.80;;;;;;;-3.15;69.70;96161.69;5051124;28;20657;-84
2022/01/14 01:42:13;;;;;;;30.83;13.53;;;;;;;-3.35;70.25;96131.22;5051049;28;20210;-84
2022/01/14 01:44:40;;;;;;;34.57;15.30;;;;;;;-3.60;69.55;96094.13;5052325;28;20175;-84
2022/01/14 01:47:07;;;;;;;38.83;16.63;;;;;;;-3.14;70.00;96161.63;5052213;28;20183;-84
2022/01/14 01:49:35;;;;;;;37.53;16.30;;;;;;;-3.15;69.96;96159.13;5050956;28;20163;-84
2022/01/14 01:52:02;;;;;;;33.40;14.30;;;;;;;-3.43;69.96;96108.53;5052390;28;20238;-84
2022/01/14 01:54:29;;;;;;;27.57;13.63;;;;;;;-3.14;69.71;96160.78;5050865;28;20217;-86
2022/01/14 01:56:55;;;;;;;31.13;13.73;;;;;;;-3.30;69.74;96139.50;5050908;28;20171;-85
2022/01/14 01:59:23;;;;;;;22.23;10.63;;;;;;;-3.18;70.05;96154.16;5052081;28;20183;-85
2022/01/14 02:01:51;;;;;;;22.63;10.13;;;;;;;-3.15;70.00;96144.50;5060798;28;20170;-85
2022/01/14 02:04:17;;;;;;;27.47;12.57;;;;;;;-3.32;69.47;96118.16;5064331;28;20224;-84
2022/01/14 02:06:43;;;;;;;27.60;12.63;;;;;;;-3.10;69.21;96139.88;5062612;28;20745;-85
2022/01/14 02:09:10;;;;;;;33.03;11.67;;;;;;;-3.17;69.57;96136.03;5067019;28;20224;-85
2022/01/14 02:11:35;;;;;;;30.80;13.10;;;;;;;-3.30;70.11;96124.06;5072282;28;20174;-85
2022/01/14 02:14:11;;;;;;;26.77;12.43;;;;;;;-3.21;70.25;96116.59;5070764;28;20166;-85
2022/01/14 02:17:00;;;;;;;29.07;12.03;;;;;;;-3.21;69.44;96103.72;5070664;28;20252;-85
2022/01/14 02:19:29;;;;;;;21.07;11.80;;;;;;;-3.39;69.53;96061.09;5071848;28;20171;-85
2022/01/14 02:22:14;;;;;;;25.83;12.77;;;;;;;-3.16;70.15;96095.69;5072257;28;20162;-85
2022/01/14 02:27:08;;;;;;;52.27;20.63;;;;;;;-3.13;69.48;96090.34;5072157;28;20186;-85
2022/01/14 02:29:34;;;;;;;42.60;16.27;;;;;;;-3.11;69.36;96099.59;5070396;28;20269;-85
2022/01/14 02:32:00;;;;;;;41.13;16.93;;;;;;;-3.20;68.85;96079.59;5072054;28;20186;-85
2022/01/14 02:34:25;;;;;;;37.67;14.93;;;;;;;-3.51;69.05;96028.41;5070252;28;20175;-86
2022/01/14 02:36:52;;;;;;;28.50;14.17;;;;;;;-3.43;69.33;96031.31;5069409;28;20198;-86
2022/01/14 02:39:19;;;;;;;31.37;13.60;;;;;;;-3.33;68.80;96044.44;5058906;28;20168;-86
2022/01/14 02:41:47;;;;;;;30.77;12.60;;;;;;;-3.11;68.72;96089.31;5060181;28;20234;-85
2022/01/14 02:44:23;;;;;;;29.80;12.30;;;;;;;-3.26;68.91;96079.16;5059064;28;20174;-85
2022/01/14 02:46:55;;;;;;;28.43;13.17;;;;;;;-3.28;69.27;96081.00;5067318;28;20178;-85
2022/01/14 02:49:22;;;;;;;29.60;13.63;;;;;;;-3.45;69.86;96053.75;5070461;28;20174;-85
2022/01/14 02:51:48;;;;;;;26.17;13.47;;;;;;;-3.33;69.46;96088.19;5070392;28;20666;-85
2022/01/14 02:54:20;;;;;;;27.77;13.93;;;;;;;-3.53;69.89;96056.81;5070337;28;20182;-86
2022/01/14 02:56:48;;;;;;;35.70;12.90;;;;;;;-3.28;69.71;96091.28;5072141;28;20151;-86
2022/01/14 02:59:16;;;;;;;32.07;13.77;;;;;;;-3.43;69.90;96068.19;5070582;28;20197;-85
2022/01/14 03:01:44;;;;;;;27.63;13.23;;;;;;;-3.54;69.54;96041.44;5070291;28;20202;-85
2022/01/14 03:04:10;;;;;;;39.50;16.17;;;;;;;-3.29;69.51;96076.81;5071809;28;20163;-86
2022/01/14 03:06:36;;;;;;;42.37;18.30;;;;;;;-3.42;69.66;96062.13;5071300;28;20225;-85
2022/01/14 03:09:02;;;;;;;45.83;19.13;;;;;;;-3.32;69.76;96070.09;5071175;28;20206;-85
2022/01/14 03:11:55;;;;;;;39.93;17.00;;;;;;;-3.29;70.12;96067.34;5070051;28;20609;-85
2022/01/14 03:14:24;;;;;;;31.23;12.70;;;;;;;-3.39;69.62;96047.41;5071483;28;20178;-86
2022/01/14 03:16:52;;;;;;;31.40;13.07;;;;;;;-3.47;70.00;96038.44;5075275;28;20215;-84
2022/01/14 03:19:24;;;;;;;29.23;13.73;;;;;;;-3.62;69.96;96002.53;5068142;28;20182;-87
2022/01/14 03:21:53;;;;;;;30.30;13.73;;;;;;;-3.39;70.41;96042.25;5061615;28;20174;-85
2022/01/14 03:26:46;;;;;;;28.07;13.73;;;;;;;-3.32;70.35;96038.38;5060315;28;20186;-85
2022/01/14 03:29:13;;;;;;;29.43;12.13;;;;;;;-3.25;70.21;96037.88;5053500;28;20167;-85
2022/01/14 03:31:38;;;;;;;25.47;11.57;;;;;;;-3.44;69.97;96015.06;5054991;28;20166;-85
2022/01/14 03:34:04;;;;;;;24.37;12.23;;;;;;;-3.43;69.72;96011.56;5054596;28;20175;-86
2022/01/14 03:36:29;;;;;;;27.83;11.67;;;;;;;-3.50;70.11;96001.75;5054750;28;20608;-86
2022/01/14 03:38:55;;;;;;;27.07;13.17;;;;;;;-3.56;69.11;95984.16;5056946;28;20182;-86
2022/01/14 03:41:20;;;;;;;30.60;12.77;;;;;;;-3.50;69.95;95996.63;5062393;28;20257;-85
2022/01/14 03:43:45;;;;;;;24.57;12.03;;;;;;;-3.63;69.54;95967.47;5061001;28;20274;-85
2022/01/14 03:46:11;;;;;;;39.83;13.93;;;;;;;-3.33;69.72;96016.97;5069546;28;20163;-85
2022/01/14 03:48:37;;;;;;;26.87;13.07;;;;;;;-3.53;69.15;95974.47;5072801;28;20198;-85
2022/01/14 03:51:03;;;;;;;33.47;13.73;;;;;;;-3.30;69.42;96011.63;5073148;28;20174;-86
2022/01/14 03:53:28;;;;;;;30.27;11.67;;;;;;;-3.48;69.55;95997.34;5074569;28;20184;-86
2022/01/14 03:55:54;;;;;;;25.27;11.90;;;;;;;-3.58;69.51;95991.13;5074863;28;20245;-86
2022/01/14 03:58:19;;;;;;;28.70;12.50;;;;;;;-3.59;69.75;96003.16;5073001;28;20245;-86
2022/01/14 04:00:45;;;;;;;25.30;11.80;;;;;;;-3.66;70.10;95989.03;5074528;28;20162;-86
2022/01/14 04:03:11;;;;;;;28.60;11.10;;;;;;;-3.59;69.81;95987.72;5074124;28;20227;-86
2022/01/14 04:05:37;;;;;;;22.83;11.30;;;;;;;-3.49;70.02;95999.09;5061955;28;20175;-86
2022/01/14 04:08:03;;;;;;;24.67;12.13;;;;;;;-3.45;69.58;95994.56;5061270;28;20229;-86
2022/01/14 04:10:29;;;;;;;27.30;11.63;;;;;;;-3.58;69.05;95973.13;5065415;28;20243;-87
2022/01/14 04:15:37;;;;;;;25.33;11.93;;;;;;;-3.56;68.96;95948.13;5059606;28;20159;-87
2022/01/14 04:18:15;;;;;;;21.93;11.50;;;;;;;-3.26;68.85;95996.78;5053558;28;20202;-87
2022/01/14 04:20:43;;;;;;;26.63;11.77;;;;;;;-3.40;68.62;95973.69;5052725;28;20206;-87
2022/01/14 04:23:11;;;;;;;28.20;12.07;;;;;;;-3.35;69.16;95989.66;5052479;28;20194;-86
2022/01/14 04:25:38;;;;;;;25.87;12.30;;;;;;;-3.32;68.46;95992.88;5052466;28;20175;-85
2022/01/14 04:28:05;;;;;;;27.70;11.73;;;;;;;-3.29;68.76;95986.72;5054511;28;20213;-85
2022/01/14 04:30:31;;;;;;;32.57;13.70;;;;;;;-3.40;68.62;95969.38;5062987;28;20607;-84
2022/01/14 04:32:57;;;;;;;36.70;15.17;;;;;;;-3.26;68.47;95987.31;5064359;28;20652;-84
2022/01/14 04:35:26;;;;;;;35.27;14.50;;;;;;;-3.22;67.93;95975.09;5065071;28;20620;-84
2022/01/14 04:37:52;;;;;;;33.90;13.97;;;;;;;-3.08;68.22;95993.84;5073462;28;20558;-84
2022/01/14 04:40:17;;;;;;;32.83;13.63;;;;;;;-3.17;67.65;95971.28;5070340;28;20178;-85
2022/01/14 04:42:43;;;;;;;28.13;13.10;;;;;;;-3.19;67.24;95974.88;5051812;28;20282;-86
2022/01/14 04:45:26;;;;;;;25.43;12.80;;;;;;;-3.06;67.67;95997.16;5053378;28;20159;-84
2022/01/14 04:47:51;;;;;;;31.93;14.77;;;;;;;-3.08;67.66;95995.59;5051959;28;20191;-85
2022/01/14 04:50:19;;;;;;;39.27;16.10;;;;;;;-3.11;67.98;95980.34;5053226;28;20182;-86
2022/01/14 04:52:47;;;;;;;39.13;15.53;;;;;;;-3.08;67.61;95973.25;5053339;28;20152;-87
2022/01/14 04:55:15;;;;;;;39.63;17.23;;;;;;;-2.98;67.33;95990.69;5053282;28;20515;-87
2022/01/14 04:57:41;;;;;;;44.80;17.93;;;;;;;-3.08;67.46;95975.84;5053112;28;20206;-87
2022/01/14 05:00:13;;;;;;;45.37;20.37;;;;;;;-3.11;67.63;95981.16;5051607;28;20262;-84
2022/01/14 05:02:39;;;;;;;43.53;19.10;;;;;;;-3.14;67.79;95980.56;5059204;28;20698;-85
2022/01/14 05:05:06;;;;;;;55.73;21.23;;;;;;;-3.27;67.52;95952.22;5062306;28;20692;-87
2022/01/14 05:07:32;;;;;;;54.10;24.20;;;;;;;-3.15;68.03;95963.47;5055432;28;20234;-85
2022/01/14 05:12:38;;;;;;;60.13;24.97;;;;;;;-3.23;68.42;95953.66;5063612;28;20175;-86
2022/01/14 05:15:04;;;;;;;60.60;25.97;;;;;;;-3.06;68.84;95976.56;5069184;28;20174;-86
2022/01/14 05:17:31;;;;;;;67.80;23.23;;;;;;;-3.14;69.22;95976.25;5072541;28;20155;-86
2022/01/14 05:19:58;;;;;;;59.20;23.70;;;;;;;-3.48;68.39;95925.31;5072076;28;20190;-86
2022/01/14 05:22:24;;;;;;;60.93;22.63;;;;;;;-3.09;68.32;95991.38;5071164;28;20170;-85
2022/01/14 05:24:49;;;;;;;41.03;18.83;;;;;;;-3.29;68.24;95969.53;5071200;28;20171;-85
2022/01/14 05:27:15;;;;;;;39.87;15.60;;;;;;;-3.32;68.59;95974.03;5053245;28;20728;-84
2022/01/14 05:29:40;;;;;;;31.00;13.43;;;;;;;-3.25;68.76;95973.53;5051161;28;20236;-84
2022/01/14 05:32:11;;;;;;;29.30;11.90;;;;;;;-3.21;68.31;95992.19;5056223;28;20649;-84
2022/01/14 05:34:37;;;;;;;25.30;11.60;;;;;;;-3.32;68.08;95966.31;5060421;28;20712;-84
2022/01/14 05:37:04;;;;;;;28.83;12.47;;;;;;;-3.19;68.51;95988.56;5059218;28;20310;-84
2022/01/14 05:39:31;;;;;;;25.03;12.03;;;;;;;-3.37;68.83;95963.22;5055513;28;20253;-84
2022/01/14 05:41:58;;;;;;;26.10;11.70;;;;;;;-3.20;68.61;95986.13;5050445;28;20182;-86
2022/01/14 05:44:24;;;;;;;28.43;14.50;;;;;;;-3.34;68.68;95961.25;5050217;28;20581;-82
2022/01/14 05:46:50;;;;;;;47.10;19.20;;;;;;;-3.42;68.59;95972.03;5052126;28;20175;-84
2022/01/14 05:49:16;;;;;;;61.93;22.87;;;;;;;-3.84;69.05;95934.44;5051683;28;20685;-84
2022/01/14 05:51:41;;;;;;;41.17;19.70;;;;;;;-3.64;69.38;95955.50;5050067;28;20265;-85
2022/01/14 05:54:07;;;;;;;53.83;19.07;;;;;;;-3.69;69.82;95967.81;5055168;28;20179;-85
2022/01/14 05:56:32;;;;;;;51.17;21.93;;;;;;;-4.00;70.41;95932.94;5059432;28;20171;-86
2022/01/14 05:58:58;;;;;;;45.73;19.23;;;;;;;-3.76;71.27;95966.56;5058084;28;20210;-84
2022/01/14 06:01:23;;;;;;;47.07;21.80;;;;;;;-3.86;71.01;95958.59;5057683;28;20186;-83
2022/01/14 06:03:49;;;;;;;46.10;19.90;;;;;;;-3.96;70.84;95935.19;5054450;28;20178;-83
2022/01/14 06:06:14;;;;;;;48.33;21.17;;;;;;;-3.95;71.80;95938.59;5057522;28;20186;-83
2022/01/14 06:08:39;;;;;;;54.30;22.20;;;;;;;-4.02;72.41;95920.16;5059861;28;20187;-83
2022/01/14 06:11:05;;;;;;;54.53;19.93;;;;;;;-3.57;72.39;95960.16;5051841;28;20862;-84
2022/01/14 06:13:30;;;;;;;40.60;18.47;;;;;;;-3.48;71.58;95923.56;5054878;28;20182;-83
2022/01/14 06:15:56;;;;;;;51.43;19.83;;;;;;;-3.29;70.93;95927.50;5058166;28;20702;-83
2022/01/14 06:18:22;;;;;;;51.20;19.10;;;;;;;-3.11;70.77;95936.56;5055335;28;20576;-84
2022/01/14 06:21:11;;;;;;;45.03;17.77;;;;;;;-2.82;70.16;95950.94;5062567;28;20540;-83
2022/01/14 06:23:37;;;;;;;34.97;15.37;;;;;;;-2.79;70.04;95935.28;5038628;28;20209;-83
2022/01/14 06:26:04;;;;;;;44.07;15.13;;;;;;;-2.74;69.43;95922.91;5051972;28;20183;-83
2022/01/14 06:28:29;;;;;;;43.67;14.27;;;;;;;-2.40;69.40;95952.34;5051798;28;20214;-83
2022/01/14 06:30:55;;;;;;;39.83;15.03;;;;;;;-2.68;68.98;95886.41;5051787;28;20646;-83
2022/01/14 06:33:20;;;;;;;46.07;14.80;;;;;;;-2.40;69.03;95910.28;5051140;28;20163;-84
2022/01/14 06:35:45;;;;;;;45.67;15.60;;;;;;;-2.31;68.83;95907.91;5051743;28;20557;-84
2022/01/14 06:38:11;;;;;;;32.97;15.40;;;;;;;-2.26;68.83;95897.28;5052010;28;20160;-83
2022/01/14 06:40:37;;;;;;;56.73;18.00;;;;;;;-2.05;68.15;95926.72;5053281;28;20183;-85
2022/01/14 06:43:04;;;;;;;58.73;20.40;;;;;;;-1.90;68.15;95941.09;5062104;28;20608;-83
2022/01/14 06:45:31;;;;;;;57.23;18.33;;;;;;;-1.84;68.49;95937.28;5062708;28;20179;-83
2022/01/14 06:47:57;;;;;;;39.57;15.67;;;;;;;-1.90;69.00;95919.63;5058419;28;21038;-83
2022/01/14 06:50:23;;;;;;;31.80;12.73;;;;;;;-1.70;68.64;95913.06;5063995;28;20631;-84
2022/01/14 06:52:49;;;;;;;37.00;14.43;;;;;;;-1.97;69.43;95872.81;5057525;28;20241;-84
2022/01/14 06:55:14;;;;;;;37.23;14.33;;;;;;;-1.63;69.80;95898.78;5055259;28;20166;-83
2022/01/14 06:57:40;;;;;;;37.37;13.53;;;;;;;-1.44;69.39;95888.78;5059323;28;20182;-83
2022/01/14 07:00:12;;;;;;;40.30;14.73;;;;;;;-1.18;69.14;95907.53;5062160;28;20171;-83
2022/01/14 07:02:37;;;;;;;44.23;17.30;;;;;;;-1.16;69.11;95903.06;5065500;28;20261;-82
2022/01/14 07:05:04;;;;;;;46.37;19.50;;;;;;;-1.41;69.55;95855.00;5063939;28;20263;-83
2022/01/14 07:07:30;;;;;;;45.70;17.87;;;;;;;-0.95;68.77;95892.91;5073392;28;20222;-83
2022/01/14 07:09:58;;;;;;;34.13;14.63;;;;;;;-1.08;67.43;95866.34;5072102;28;20186;-83
2022/01/14 07:12:36;;;;;;;36.20;16.33;;;;;;;-0.70;67.53;95899.63;5063255;28;20548;-83
2022/01/14 07:15:05;;;;;;;38.43;16.37;;;;;;;-0.80;67.05;95866.72;5063840;28;20247;-83
2022/01/14 07:17:30;;;;;;;51.97;18.90;;;;;;;-0.66;67.42;95876.00;5064056;28;20265;-83
2022/01/14 07:20:00;;;;;;;38.27;18.30;;;;;;;-0.51;67.64;95892.94;5072549;28;20672;-83
2022/01/14 07:22:25;;;;;;;40.80;16.23;;;;;;;-0.52;67.35;95880.94;5075041;28;20224;-83
2022/01/14 07:24:51;;;;;;;44.23;17.40;;;;;;;-0.44;67.70;95877.78;5075122;28;20597;-83
2022/01/14 07:27:16;;;;;;;38.67;15.23;;;;;;;-0.24;68.05;95899.50;5074977;28;20187;-83
2022/01/14 07:29:42;;;;;;;40.83;16.27;;;;;;;-0.24;68.58;95894.31;5074152;28;20249;-82
2022/01/14 07:32:08;;;;;;;42.97;18.13;;;;;;;-0.12;67.91;95901.16;5065921;28;20175;-84
2022/01/14 07:34:35;;;;;;;35.47;14.67;;;;;;;-0.03;67.40;95890.91;5061039;28;20307;-84
2022/01/14 07:37:01;;;;;;;28.63;13.37;;;;;;;-0.19;66.94;95851.66;5062875;28;20556;-84
2022/01/14 07:39:26;;;;;;;32.63;13.90;;;;;;;0.03;66.84;95870.66;5059950;28;20179;-85
2022/01/14 07:41:52;;;;;;;27.33;11.97;;;;;;;0.20;66.61;95881.31;5065077;28;20183;-83
2022/01/14 07:44:18;;;;;;;40.63;15.80;;;;;;;0.25;66.84;95883.53;5061306;28;20664;-83
2022/01/14 07:46:44;;;;;;;34.93;15.97;;;;;;;0.07;67.73;95835.84;5058284;28;20164;-84
2022/01/14 07:49:10;;;;;;;40.70;16.67;;;;;;;0.13;66.95;95837.91;5069486;28;20285;-86
2022/01/14 07:51:36;;;;;;;40.20;18.80;;;;;;;0.53;66.74;95871.78;5073934;28;20250;-85
2022/01/14 07:54:05;;;;;;;41.87;22.00;;;;;;;0.46;66.64;95852.50;5073333;28;20174;-84
2022/01/14 07:56:47;;;;;;;44.80;20.60;;;;;;;0.63;66.03;95870.06;5072384;28;20629;-85
2022/01/14 07:59:15;;;;;;;39.93;18.53;;;;;;;0.30;65.32;95809.72;5073342;28;20151;-83
2022/01/14 08:01:42;;;;;;;40.10;17.60;;;;;;;0.67;65.94;95850.75;5053859;28;20182;-84
2022/01/14 08:04:07;;;;;;;39.37;18.13;;;;;;;0.70;65.97;95842.72;5057621;28;20195;-85
2022/01/14 08:06:37;;;;;;;46.93;22.23;;;;;;;0.90;66.67;95861.81;5058874;28;20672;-85
2022/01/14 08:09:03;;;;;;;53.30;23.63;;;;;;;0.84;66.55;95852.78;5056323;28;21595;-85
2022/01/14 08:11:28;;;;;;;57.93;27.07;;;;;;;0.75;67.18;95823.28;5054837;28;20181;-86
2022/01/14 08:13:54;;;;;;;42.53;19.37;;;;;;;0.88;67.32;95823.06;5060763;28;20183;-85
2022/01/14 08:16:19;;;;;;;42.70;20.17;;;;;;;1.03;68.06;95842.53;5060669;28;20259;-86
2022/01/14 08:18:45;;;;;;;38.20;15.60;;;;;;;1.20;68.22;95842.91;5052846;28;20185;-86
2022/01/14 08:21:10;;;;;;;31.30;13.13;;;;;;;1.03;69.29;95836.53;5061299;28;20179;-86
2022/01/14 08:23:35;;;;;;;35.73;15.47;;;;;;;0.90;69.16;95797.84;5057802;28;20183;-85
2022/01/14 08:26:01;;;;;;;41.07;17.43;;;;;;;0.91;69.99;95785.72;5057145;28;21532;-86
2022/01/14 08:28:27;;;;;;;36.77;14.57;;;;;;;1.09;69.45;95795.34;5056751;28;20742;-83
2022/01/14 08:30:54;;;;;;;34.90;14.27;;;;;;;1.48;69.27;95837.00;5058741;28;20688;-84
2022/01/14 08:33:19;;;;;;;33.60;13.03;;;;;;;1.50;69.57;95828.13;5054461;28;20178;-84
2022/01/14 08:35:46;;;;;;;25.10;11.30;;;;;;;1.57;70.00;95820.66;5056521;28;20190;-85
2022/01/14 08:38:12;;;;;;;31.47;13.37;;;;;;;1.73;69.99;95835.75;5057306;28;20183;-84
2022/01/14 08:40:38;;;;;;;25.23;11.47;;;;;;;1.64;69.78;95810.59;5054888;28;20183;-84
2022/01/14 08:43:04;;;;;;;36.90;15.70;;;;;;;1.85;69.18;95825.09;5050585;28;20183;-85
2022/01/14 08:45:29;;;;;;;40.17;17.30;;;;;;;1.58;68.49;95775.59;5051970;28;20180;-84
2022/01/14 08:47:55;;;;;;;36.47;18.17;;;;;;;1.97;68.40;95819.81;5053284;28;20199;-85
2022/01/14 08:50:24;;;;;;;22.83;11.73;;;;;;;1.77;68.48;95770.44;5053300;28;21203;-85
2022/01/14 08:52:51;;;;;;;22.40;10.23;;;;;;;2.05;69.34;95812.97;5051299;28;20186;-85
2022/01/14 08:55:17;;;;;;;17.10;9.30;;;;;;;2.01;69.94;95806.41;5052789;28;20267;-85
2022/01/14 08:57:46;;;;;;;25.90;11.27;;;;;;;2.13;70.33;95792.34;5053413;28;20275;-84
2022/01/14 09:00:12;;;;;;;17.07;7.37;;;;;;;2.33;70.63;95789.75;5052547;28;20185;-86
2022/01/14 09:02:38;;;;;;;29.47;8.30;;;;;;;2.34;70.20;95778.38;5057604;28;20185;-87
2022/01/14 09:05:04;;;;;;;15.93;7.33;;;;;;;2.26;70.27;95772.09;5050851;28;20194;-85
2022/01/14 09:07:30;;;;;;;18.60;9.80;;;;;;;2.40;70.75;95783.88;5052266;28;20238;-84
2022/01/14 09:09:56;;;;;;;27.10;10.23;;;;;;;2.62;70.11;95799.16;5056840;28;20182;-84
2022/01/14 09:12:21;;;;;;;16.30;7.83;;;;;;;2.70;69.78;95797.63;5057342;28;20203;-83
2022/01/14 09:14:47;;;;;;;13.97;6.77;;;;;;;2.78;70.07;95795.97;5056628;28;20670;-83
2022/01/14 09:17:13;;;;;;;18.87;7.37;;;;;;;2.72;69.88;95767.13;5047215;28;20684;-84
2022/01/14 09:19:39;;;;;;;14.23;6.03;;;;;;;2.66;70.17;95760.72;5050893;28;20265;-86
2022/01/14 09:22:07;;;;;;;9.63;5.40;;;;;;;2.63;70.43;95746.22;5048839;28;20606;-85
2022/01/14 09:24:33;;;;;;;14.97;6.13;;;;;;;2.49;70.43;95725.88;5048506;28;20669;-86
2022/01/14 09:26:59;;;;;;;13.10;6.27;;;;;;;2.51;70.89;95723.13;5050561;28;20643;-86
2022/01/14 09:29:24;;;;;;;14.47;6.13;;;;;;;2.93;70.36;95775.59;5050216;28;20243;-86
2022/01/14 09:31:50;;;;;;;10.93;6.20;;;;;;;2.53;69.98;95703.84;5047620;28;20633;-86
2022/01/14 09:34:15;;;;;;;14.57;5.93;;;;;;;2.68;70.46;95708.63;5050790;28;20187;-86
2022/01/14 09:36:40;;;;;;;10.70;5.57;;;;;;;2.65;70.11;95710.53;5047285;28;20235;-87
2022/01/14 09:39:07;;;;;;;11.43;6.07;;;;;;;2.95;70.80;95758.03;5052968;28;20178;-86
2022/01/14 09:41:32;;;;;;;10.10;4.80;;;;;;;2.72;70.40;95721.16;5049029;28;20179;-82
2022/01/14 09:43:58;;;;;;;9.67;5.47;;;;;;;2.91;70.25;95738.50;5049770;28;20700;-82
2022/01/14 09:46:24;;;;;;;10.73;6.40;;;;;;;3.00;70.39;95758.44;5049394;28;20684;-83
2022/01/14 09:48:50;;;;;;;13.57;7.27;;;;;;;2.76;70.00;95704.34;5050217;28;20203;-83
2022/01/14 09:51:16;;;;;;;12.93;6.37;;;;;;;2.89;70.11;95693.63;5049427;28;20244;-83
2022/01/14 09:53:41;;;;;;;15.67;7.33;;;;;;;3.10;69.65;95719.41;5053103;28;20577;-83
2022/01/14 09:56:07;;;;;;;13.13;7.03;;;;;;;3.28;70.02;95712.47;5049613;28;20183;-84
2022/01/14 09:58:36;;;;;;;15.43;7.93;;;;;;;3.54;69.32;95733.44;5048028;28;20179;-84
2022/01/14 10:01:09;;;;;;;11.13;6.33;;;;;;;3.54;68.40;95692.59;5050802;28;20271;-84
2022/01/14 10:03:48;;;;;;;14.73;6.60;;;;;;;3.71;68.58;95691.81;5056846;28;20692;-85
2022/01/14 10:06:33;;;;;;;12.90;6.40;;;;;;;3.97;67.70;95706.69;5050704;28;20576;-85
2022/01/14 10:09:24;;;;;;;11.20;5.80;;;;;;;3.96;67.81;95713.69;5048329;28;20206;-84
2022/01/14 10:12:00;;;;;;;12.70;6.40;;;;;;;3.70;67.35;95677.16;5050297;28;20178;-84
2022/01/14 10:14:26;;;;;;;10.43;5.70;;;;;;;3.76;68.01;95699.16;5047632;28;20245;-85
2022/01/14 10:16:56;;;;;;;16.17;7.53;;;;;;;3.57;68.22;95683.66;5051031;28;20194;-84
2022/01/14 10:19:33;;;;;;;11.37;6.50;;;;;;;3.45;69.25;95687.47;5047955;28;21229;-84
2022/01/14 10:21:58;;;;;;;14.00;7.40;;;;;;;3.37;69.88;95665.56;5047965;28;20213;-84
2022/01/14 10:24:29;;;;;;;14.87;7.00;;;;;;;3.51;69.62;95681.66;5054968;28;20201;-84
2022/01/14 10:27:03;;;;;;;15.17;7.57;;;;;;;3.56;69.52;95671.59;5053759;28;20268;-85
2022/01/14 10:29:39;;;;;;;16.50;8.10;;;;;;;3.68;69.93;95679.06;5053249;28;20189;-85
2022/01/14 10:32:07;;;;;;;15.60;8.03;;;;;;;3.78;69.07;95676.41;5051853;28;20327;-86
2022/01/14 10:34:33;;;;;;;12.47;6.87;;;;;;;3.56;68.51;95625.59;5054053;28;20179;-85
2022/01/14 10:37:31;;;;;;;13.03;7.10;;;;;;;3.55;68.45;95618.75;5049938;28;20552;-85
2022/01/14 10:39:56;;;;;;;17.50;8.93;;;;;;;3.62;68.60;95605.97;5054979;28;20198;-86
2022/01/14 10:42:26;;;;;;;13.37;6.70;;;;;;;3.54;68.28;95611.91;5052897;28;20564;-85
2022/01/14 10:44:52;;;;;;;14.47;7.33;;;;;;;3.50;67.94;95602.75;5055151;28;20187;-86
2022/01/14 10:47:20;;;;;;;17.23;8.00;;;;;;;3.75;68.62;95648.03;5052287;28;20544;-86
2022/01/14 10:49:47;;;;;;;14.20;6.27;;;;;;;3.88;69.49;95632.88;5054984;28;20187;-86
2022/01/14 10:52:17;;;;;;;12.23;6.50;;;;;;;3.87;68.87;95591.34;5052476;28;20174;-86
2022/01/14 10:54:46;;;;;;;14.40;5.33;;;;;;;4.24;67.02;95596.34;5050666;28;20195;-86
2022/01/14 10:57:13;;;;;;;10.93;5.50;;;;;;;4.72;66.04;95621.84;5053992;28;20210;-85
2022/01/14 10:59:39;;;;;;;10.97;6.80;;;;;;;4.71;65.39;95612.38;5057899;28;20663;-85
2022/01/14 11:02:50;;;;;;;15.73;6.97;;;;;;;4.89;65.31;95628.78;5064768;28;20220;-85
2022/01/14 11:05:19;;;;;;;17.27;6.57;;;;;;;4.88;65.52;95590.63;5061478;28;20281;-85
2022/01/14 11:07:47;;;;;;;11.90;5.53;;;;;;;5.00;64.48;95570.28;5059069;28;20226;-86
2022/01/14 11:10:48;;;;;;;9.53;5.13;;;;;;;5.12;64.44;95597.69;5050910;28;20179;-86
2022/01/14 11:13:17;;;;;;;8.83;4.50;;;;;;;5.07;64.32;95579.94;4993457;28;20211;-85
2022/01/14 11:15:42;;;;;;;8.57;4.87;;;;;;;5.15;63.99;95597.41;5047947;28;20199;-86
2022/01/14 11:18:10;;;;;;;12.17;6.03;;;;;;;5.00;64.13;95591.97;5058687;28;20182;-86
2022/01/14 11:23:14;;;;;;;14.03;6.70;;;;;;;4.88;64.70;95559.31;5055865;28;20182;-85
2022/01/14 11:23:24;;;;;;;11.53;6.10;;;;;;;4.69;64.45;95526.50;5053717;28;20258;-85
2022/01/14 11:26:00;;;;;;;14.83;7.40;;;;;;;4.73;64.40;95530.44;5061714;28;20178;-85
2022/01/14 11:28:29;;;;;;;12.87;5.73;;;;;;;5.12;64.61;95569.81;5071638;28;20201;-85
2022/01/14 11:30:55;;;;;;;9.63;5.27;;;;;;;5.18;64.12;95576.22;5055871;28;20178;-85
2022/01/14 11:33:37;;;;;;;17.47;7.30;;;;;;;5.07;64.73;95553.00;5066915;28;20195;-86
2022/01/14 11:36:04;;;;;;;19.33;7.67;;;;;;;4.84;64.73;95509.25;5064124;28;20174;-85
2022/01/14 11:38:33;;;;;;;22.50;8.90;;;;;;;5.06;64.88;95553.97;5059308;28;20178;-85
2022/01/14 11:40:58;;;;;;;21.93;7.40;;;;;;;4.79;65.03;95493.28;5068428;28;20617;-86
2022/01/14 11:43:46;;;;;;;15.10;6.67;;;;;;;5.07;64.54;95519.91;5059885;28;20186;-86
2022/01/14 11:46:30;;;;;;;23.67;9.63;;;;;;;5.23;64.64;95547.81;5052603;28;20281;-85
2022/01/14 11:48:56;;;;;;;19.80;9.27;;;;;;;5.22;64.67;95525.31;5056589;28;20210;-82